Time;durP1;ratioP1;P1;durP2;ratioP2;P2;SDS_P1;SDS_P2;PMS_P1;PMS_P2;Temp;Humidity;BMP_temperature;BMP_pressure;BME280_temperature;BME280_humidity;BME280_pressure;Samples;Min_cycle;Max_cycle;Signal;HPM_P1;HPM_P2
2023/12/15 00:01:17;;;;;;;11.07;5.90;;;;;;;;;;5042132;28;20025;-78
2023/12/15 00:03:43;;;;;;;8.13;5.53;;;;;;;;;;5044987;28;20661;-78
2023/12/15 00:06:08;;;;;;;7.97;5.10;;;;;;;;;;5044740;28;20501;-78
2023/12/15 00:08:33;;;;;;;8.30;5.63;;;;;;;;;;5044354;28;20037;-78
2023/12/15 00:10:58;;;;;;;10.68;5.80;;;;;;;;;;5058262;28;20033;-78
2023/12/15 00:13:24;;;;;;;10.20;5.40;;;;;;;;;;5044701;28;20037;-78
2023/12/15 00:15:49;;;;;;;8.38;5.45;;;;;;;;;;5044132;28;20099;-78
2023/12/15 00:18:14;;;;;;;10.07;5.88;;;;;;;;;;5043294;28;20108;-78
2023/12/15 00:20:39;;;;;;;8.77;5.18;;;;;;;;;;5042825;28;20033;-78
2023/12/15 00:23:04;;;;;;;11.30;6.68;;;;;;;;;;5042235;28;20045;-79
2023/12/15 00:25:30;;;;;;;9.82;6.00;;;;;;;;;;5042255;28;20108;-78
2023/12/15 00:27:55;;;;;;;10.95;5.55;;;;;;;;;;5043118;28;20068;-78
2023/12/15 00:30:20;;;;;;;10.07;5.95;;;;;;;;;;5044977;28;20029;-78
2023/12/15 00:32:45;;;;;;;10.50;5.97;;;;;;;;;;5043423;28;20033;-78
2023/12/15 00:35:10;;;;;;;11.18;6.82;;;;;;;;;;5043828;28;20037;-78
2023/12/15 00:37:36;;;;;;;11.27;7.15;;;;;;;;;;5046212;28;20709;-78
2023/12/15 00:40:01;;;;;;;13.43;6.78;;;;;;;;;;5043260;28;20116;-78
2023/12/15 00:42:26;;;;;;;12.07;6.88;;;;;;;;;;5042360;28;20029;-78
2023/12/15 00:44:51;;;;;;;15.00;8.88;;;;;;;;;;5043117;28;20098;-78
2023/12/15 00:47:17;;;;;;;12.95;8.02;;;;;;;;;;5044334;28;20032;-79
2023/12/15 00:49:42;;;;;;;15.15;8.45;;;;;;;;;;5043039;28;20509;-78
2023/12/15 00:52:07;;;;;;;14.77;9.20;;;;;;;;;;5041305;28;20486;-79
2023/12/15 00:54:33;;;;;;;13.07;7.55;;;;;;;;;;5041067;28;20029;-78
2023/12/15 00:56:58;;;;;;;21.30;10.00;;;;;;;;;;5057370;28;20045;-78
2023/12/15 00:59:23;;;;;;;17.95;9.15;;;;;;;;;;5034972;28;20674;-78
2023/12/15 01:01:49;;;;;;;16.63;9.30;;;;;;;;;;5050927;28;20045;-78
2023/12/15 01:04:14;;;;;;;14.90;8.40;;;;;;;;;;5041475;28;20045;-78
2023/12/15 01:06:39;;;;;;;16.10;9.30;;;;;;;;;;5044430;28;20028;-78
2023/12/15 01:09:04;;;;;;;14.85;8.90;;;;;;;;;;5040997;28;20029;-78
2023/12/15 01:11:29;;;;;;;15.25;9.13;;;;;;;;;;5045108;28;20025;-78
2023/12/15 01:13:55;;;;;;;13.75;8.13;;;;;;;;;;5041726;28;20084;-78
2023/12/15 01:16:20;;;;;;;14.18;8.63;;;;;;;;;;5044684;28;20060;-78
2023/12/15 01:18:45;;;;;;;12.57;8.18;;;;;;;;;;5041424;28;20021;-78
2023/12/15 01:21:10;;;;;;;14.77;7.68;;;;;;;;;;5041245;28;20402;-78
2023/12/15 01:23:36;;;;;;;15.98;8.35;;;;;;;;;;5038043;28;20062;-78
2023/12/15 01:26:02;;;;;;;13.60;8.80;;;;;;;;;;5043196;28;20066;-78
2023/12/15 01:28:27;;;;;;;11.52;7.57;;;;;;;;;;5045042;28;20029;-78
2023/12/15 01:30:52;;;;;;;16.67;9.20;;;;;;;;;;5043960;28;20494;-78
2023/12/15 01:33:18;;;;;;;14.73;7.78;;;;;;;;;;5042132;28;20167;-78
2023/12/15 01:35:43;;;;;;;19.13;10.18;;;;;;;;;;5044860;28;20032;-78
2023/12/15 01:38:08;;;;;;;17.50;9.07;;;;;;;;;;5041221;28;20025;-78
2023/12/15 01:40:33;;;;;;;15.63;9.13;;;;;;;;;;5045638;28;20025;-78
2023/12/15 01:43:01;;;;;;;17.50;10.10;;;;;;;;;;5041975;28;20018;-79
2023/12/15 01:45:26;;;;;;;17.83;10.27;;;;;;;;;;5045823;28;20028;-79
2023/12/15 01:47:52;;;;;;;21.02;12.18;;;;;;;;;;5039611;28;20033;-78
2023/12/15 01:50:17;;;;;;;21.23;11.90;;;;;;;;;;5033829;28;20440;-79
2023/12/15 01:52:42;;;;;;;19.98;11.65;;;;;;;;;;5044321;28;20049;-79
2023/12/15 01:55:07;;;;;;;19.88;11.77;;;;;;;;;;5042814;28;20029;-78
2023/12/15 01:57:33;;;;;;;20.50;12.07;;;;;;;;;;5043818;28;20040;-79
2023/12/15 01:59:59;;;;;;;23.92;13.00;;;;;;;;;;5042971;28;20033;-77
2023/12/15 02:02:24;;;;;;;22.40;12.60;;;;;;;;;;5041974;28;20037;-78
2023/12/15 02:04:49;;;;;;;23.20;13.68;;;;;;;;;;5043163;28;20096;-77
2023/12/15 02:07:15;;;;;;;24.02;13.10;;;;;;;;;;5056618;28;20033;-79
2023/12/15 02:09:40;;;;;;;23.55;13.80;;;;;;;;;;5043040;28;20064;-78
2023/12/15 02:12:05;;;;;;;28.25;14.68;;;;;;;;;;5042001;28;20117;-78
2023/12/15 02:14:30;;;;;;;24.13;13.50;;;;;;;;;;5040459;28;20044;-78
2023/12/15 02:16:56;;;;;;;23.70;13.38;;;;;;;;;;5042030;28;20045;-78
2023/12/15 02:19:21;;;;;;;21.73;12.43;;;;;;;;;;5042090;28;20053;-77
2023/12/15 02:21:46;;;;;;;26.45;15.55;;;;;;;;;;5041769;28;20079;-78
2023/12/15 02:24:11;;;;;;;26.52;14.60;;;;;;;;;;5042510;28;20082;-78
2023/12/15 02:26:36;;;;;;;28.33;14.57;;;;;;;;;;5041695;28;20045;-78
2023/12/15 02:29:01;;;;;;;25.20;13.25;;;;;;;;;;5039130;28;20496;-78
2023/12/15 02:31:27;;;;;;;27.50;15.20;;;;;;;;;;5042192;28;20516;-78
2023/12/15 02:33:53;;;;;;;29.15;16.17;;;;;;;;;;5040397;28;20056;-78
2023/12/15 02:36:22;;;;;;;26.58;14.38;;;;;;;;;;5032480;28;20033;-79
2023/12/15 02:38:47;;;;;;;28.63;14.35;;;;;;;;;;5037106;28;20034;-78
2023/12/15 02:41:13;;;;;;;27.00;15.90;;;;;;;;;;5058196;28;20104;-78
2023/12/15 02:43:38;;;;;;;28.75;14.95;;;;;;;;;;5040045;28;20108;-78
2023/12/15 02:46:04;;;;;;;28.05;15.88;;;;;;;;;;5040906;28;20057;-78
2023/12/15 02:48:29;;;;;;;29.25;15.70;;;;;;;;;;5042324;28;20035;-78
2023/12/15 02:50:54;;;;;;;26.20;14.27;;;;;;;;;;5039866;28;20498;-78
2023/12/15 02:53:19;;;;;;;31.77;16.33;;;;;;;;;;5043069;28;20054;-78
2023/12/15 02:55:44;;;;;;;30.40;15.52;;;;;;;;;;5041625;28;20060;-78
2023/12/15 02:58:10;;;;;;;30.50;15.88;;;;;;;;;;5039345;28;20025;-78
2023/12/15 03:00:35;;;;;;;29.45;15.35;;;;;;;;;;5036008;28;20558;-78
2023/12/15 03:03:00;;;;;;;29.15;16.30;;;;;;;;;;5036716;28;20036;-78
2023/12/15 03:05:25;;;;;;;28.70;15.77;;;;;;;;;;5032561;28;20032;-79
2023/12/15 03:07:50;;;;;;;27.90;15.25;;;;;;;;;;5041748;28;20107;-78
2023/12/15 03:10:16;;;;;;;26.27;15.73;;;;;;;;;;5040951;28;20033;-78
2023/12/15 03:12:41;;;;;;;26.90;14.45;;;;;;;;;;5042888;28;20035;-78
2023/12/15 03:15:06;;;;;;;26.75;13.90;;;;;;;;;;5039557;28;20034;-78
2023/12/15 03:17:31;;;;;;;25.27;14.60;;;;;;;;;;5036224;28;20090;-79
2023/12/15 03:19:57;;;;;;;25.25;14.80;;;;;;;;;;5039537;28;20032;-78
2023/12/15 03:22:22;;;;;;;24.25;14.52;;;;;;;;;;5030839;28;20508;-79
2023/12/15 03:24:47;;;;;;;27.33;15.80;;;;;;;;;;5032203;28;20028;-78
2023/12/15 03:27:12;;;;;;;26.52;13.85;;;;;;;;;;5038843;28;20029;-78
2023/12/15 03:29:37;;;;;;;28.00;15.00;;;;;;;;;;5042583;28;20032;-78
2023/12/15 03:32:03;;;;;;;27.25;15.07;;;;;;;;;;5039329;28;20265;-78
2023/12/15 03:34:28;;;;;;;21.08;13.32;;;;;;;;;;5042511;28;20024;-78
2023/12/15 03:36:53;;;;;;;22.98;12.85;;;;;;;;;;5038462;28;20493;-79
2023/12/15 03:39:18;;;;;;;20.08;11.93;;;;;;;;;;5038338;28;20029;-79
2023/12/15 03:41:43;;;;;;;19.38;11.48;;;;;;;;;;5043403;28;20097;-78
2023/12/15 03:44:09;;;;;;;20.10;11.88;;;;;;;;;;5039215;28;20061;-78
2023/12/15 03:46:34;;;;;;;22.00;11.43;;;;;;;;;;5041945;28;20044;-78
2023/12/15 03:48:59;;;;;;;18.88;10.95;;;;;;;;;;5039375;28;20033;-78
2023/12/15 03:51:24;;;;;;;19.95;11.45;;;;;;;;;;5040566;28;20029;-78
2023/12/15 03:53:50;;;;;;;19.00;11.02;;;;;;;;;;5042297;28;20075;-78
2023/12/15 03:56:22;;;;;;;18.98;10.77;;;;;;;;;;5038126;28;20033;-78
2023/12/15 03:58:47;;;;;;;17.67;10.18;;;;;;;;;;5041120;28;20025;-78
2023/12/15 04:01:12;;;;;;;17.30;9.30;;;;;;;;;;5040001;28;20030;-78
2023/12/15 04:03:38;;;;;;;18.73;10.60;;;;;;;;;;5041185;28;20055;-78
2023/12/15 04:06:07;;;;;;;18.00;10.80;;;;;;;;;;5039761;28;20028;-79
2023/12/15 04:08:32;;;;;;;18.13;9.90;;;;;;;;;;5041314;28;20481;-79
2023/12/15 04:10:57;;;;;;;18.20;9.70;;;;;;;;;;5031820;28;20112;-79
2023/12/15 04:13:22;;;;;;;15.68;9.52;;;;;;;;;;5035673;28;20049;-78
2023/12/15 04:15:48;;;;;;;18.27;10.07;;;;;;;;;;5037667;28;20037;-78
2023/12/15 04:18:13;;;;;;;15.93;8.63;;;;;;;;;;5037724;28;20025;-78
2023/12/15 04:20:38;;;;;;;17.85;9.38;;;;;;;;;;5035200;28;20468;-78
2023/12/15 04:23:03;;;;;;;16.45;8.57;;;;;;;;;;5033849;28;20421;-77
2023/12/15 04:25:29;;;;;;;17.77;10.00;;;;;;;;;;5033955;28;20024;-78
2023/12/15 04:27:54;;;;;;;19.15;8.80;;;;;;;;;;5033577;28;20489;-77
2023/12/15 04:30:19;;;;;;;12.43;7.65;;;;;;;;;;5040348;28;20108;-78
2023/12/15 04:32:44;;;;;;;16.17;9.02;;;;;;;;;;5045080;28;20101;-78
2023/12/15 04:35:10;;;;;;;17.23;10.02;;;;;;;;;;5035262;28;20025;-78
2023/12/15 04:37:35;;;;;;;16.35;9.35;;;;;;;;;;5045366;28;20550;-78
2023/12/15 04:40:00;;;;;;;14.27;8.52;;;;;;;;;;5040748;28;20025;-78
2023/12/15 04:42:27;;;;;;;17.48;9.25;;;;;;;;;;5044408;28;20107;-78
2023/12/15 04:44:53;;;;;;;15.60;8.20;;;;;;;;;;5057762;28;20393;-77
2023/12/15 04:47:18;;;;;;;15.07;8.15;;;;;;;;;;5041240;28;20040;-78
2023/12/15 04:49:43;;;;;;;15.00;8.45;;;;;;;;;;5035030;28;20087;-77
2023/12/15 04:52:09;;;;;;;17.27;9.65;;;;;;;;;;5052878;28;20124;-78
2023/12/15 04:54:34;;;;;;;17.27;9.40;;;;;;;;;;5044575;28;20033;-78
2023/12/15 04:56:59;;;;;;;16.85;9.75;;;;;;;;;;5038840;28;20040;-79
2023/12/15 04:59:24;;;;;;;19.85;11.35;;;;;;;;;;5040684;28;20477;-78
2023/12/15 05:01:50;;;;;;;18.13;9.45;;;;;;;;;;5043604;28;20045;-77
2023/12/15 05:04:15;;;;;;;14.32;8.75;;;;;;;;;;5041158;28;20040;-77
2023/12/15 05:06:40;;;;;;;15.85;9.68;;;;;;;;;;5035878;28;20409;-78
2023/12/15 05:09:08;;;;;;;15.00;8.32;;;;;;;;;;5039750;28;20033;-77
2023/12/15 05:11:34;;;;;;;17.83;9.52;;;;;;;;;;5038222;28;20052;-77
2023/12/15 05:13:59;;;;;;;19.30;9.05;;;;;;;;;;5043461;28;20044;-79
2023/12/15 05:16:25;;;;;;;15.45;9.02;;;;;;;;;;5037462;28;20042;-78
2023/12/15 05:18:50;;;;;;;15.02;8.25;;;;;;;;;;5031054;28;20025;-77
2023/12/15 05:21:15;;;;;;;17.33;9.57;;;;;;;;;;5038840;28;20028;-77
2023/12/15 05:23:40;;;;;;;19.52;9.05;;;;;;;;;;5038470;28;20219;-77
2023/12/15 05:26:05;;;;;;;16.92;9.73;;;;;;;;;;5039197;28;20383;-77
2023/12/15 05:28:31;;;;;;;14.23;8.38;;;;;;;;;;5037657;28;20323;-78
2023/12/15 05:30:56;;;;;;;14.00;7.93;;;;;;;;;;5026007;28;20112;-78
2023/12/15 05:33:21;;;;;;;15.48;8.50;;;;;;;;;;5022716;28;20030;-78
2023/12/15 05:35:46;;;;;;;17.10;8.30;;;;;;;;;;5029742;28;20022;-77
2023/12/15 05:38:11;;;;;;;18.15;10.48;;;;;;;;;;5030473;28;20472;-78
2023/12/15 05:40:37;;;;;;;16.35;9.05;;;;;;;;;;5033984;28;20056;-78
2023/12/15 05:43:02;;;;;;;18.30;9.23;;;;;;;;;;5030833;28;20053;-77
2023/12/15 05:45:27;;;;;;;16.10;8.35;;;;;;;;;;5031924;28;20420;-77
2023/12/15 05:47:52;;;;;;;17.08;9.38;;;;;;;;;;5035502;28;20033;-77
2023/12/15 05:50:17;;;;;;;15.95;9.18;;;;;;;;;;5034457;28;20087;-78
2023/12/15 05:52:42;;;;;;;18.90;9.88;;;;;;;;;;5042555;28;20070;-77
2023/12/15 05:55:08;;;;;;;18.33;10.18;;;;;;;;;;5049939;28;20037;-77
2023/12/15 05:57:33;;;;;;;18.42;10.43;;;;;;;;;;5035332;28;20460;-77
2023/12/15 05:59:58;;;;;;;18.90;10.77;;;;;;;;;;5037180;28;20044;-78
2023/12/15 06:02:23;;;;;;;16.70;9.07;;;;;;;;;;5038210;28;20025;-77
2023/12/15 06:04:48;;;;;;;20.20;10.60;;;;;;;;;;5038797;28;20053;-77
2023/12/15 06:07:15;;;;;;;19.17;9.60;;;;;;;;;;5038292;28;20091;-77
2023/12/15 06:09:40;;;;;;;19.65;10.05;;;;;;;;;;5040182;28;20040;-77
2023/12/15 06:12:06;;;;;;;16.58;8.05;;;;;;;;;;5029667;28;20037;-78
2023/12/15 06:14:32;;;;;;;16.83;9.15;;;;;;;;;;5030771;28;20541;-78
2023/12/15 06:16:57;;;;;;;18.75;10.55;;;;;;;;;;5035489;28;20515;-77
2023/12/15 06:19:23;;;;;;;16.98;8.63;;;;;;;;;;5036845;28;20026;-77
2023/12/15 06:21:49;;;;;;;18.77;9.98;;;;;;;;;;5048059;28;20017;-77
2023/12/15 06:24:14;;;;;;;15.10;9.70;;;;;;;;;;5040173;28;20999;-77
2023/12/15 06:26:39;;;;;;;18.40;9.10;;;;;;;;;;5031996;28;20460;-77
2023/12/15 06:29:04;;;;;;;20.10;9.65;;;;;;;;;;5036549;28;20148;-77
2023/12/15 06:31:29;;;;;;;21.25;9.77;;;;;;;;;;5037427;28;20036;-77
2023/12/15 06:33:55;;;;;;;15.48;8.65;;;;;;;;;;5041629;28;20028;-77
2023/12/15 06:36:20;;;;;;;17.67;9.07;;;;;;;;;;5038051;28;20026;-78
2023/12/15 06:38:45;;;;;;;18.33;8.27;;;;;;;;;;5054632;28;20029;-77
2023/12/15 06:41:11;;;;;;;15.32;8.82;;;;;;;;;;5033292;28;20029;-76
2023/12/15 06:43:39;;;;;;;16.55;9.68;;;;;;;;;;5034131;28;20124;-76
2023/12/15 06:46:05;;;;;;;19.25;8.98;;;;;;;;;;5042663;28;20033;-77
2023/12/15 06:48:30;;;;;;;19.55;9.90;;;;;;;;;;5041095;28;20048;-76
2023/12/15 06:50:55;;;;;;;18.52;9.57;;;;;;;;;;5039183;28;20029;-76
2023/12/15 06:53:20;;;;;;;19.38;10.07;;;;;;;;;;5034702;28;20109;-76
2023/12/15 06:55:46;;;;;;;20.88;11.07;;;;;;;;;;5032886;28;20108;-77
2023/12/15 06:58:11;;;;;;;19.30;9.63;;;;;;;;;;5031321;28;20040;-76
2023/12/15 07:00:37;;;;;;;17.30;8.95;;;;;;;;;;5037218;28;20405;-76
2023/12/15 07:03:03;;;;;;;19.55;11.52;;;;;;;;;;5035716;28;20024;-77
2023/12/15 07:05:28;;;;;;;22.33;11.75;;;;;;;;;;5038942;28;20596;-76
2023/12/15 07:07:53;;;;;;;25.63;12.77;;;;;;;;;;5044638;28;20579;-76
2023/12/15 07:10:18;;;;;;;21.25;10.75;;;;;;;;;;5036204;28;20032;-76
2023/12/15 07:12:43;;;;;;;21.02;10.80;;;;;;;;;;5036912;28;20422;-76
2023/12/15 07:15:09;;;;;;;19.50;9.60;;;;;;;;;;5037669;28;20076;-76
2023/12/15 07:17:34;;;;;;;21.02;11.05;;;;;;;;;;5044490;28;20513;-76
2023/12/15 07:19:59;;;;;;;17.38;10.15;;;;;;;;;;5042136;28;20033;-76
2023/12/15 07:22:24;;;;;;;21.38;10.40;;;;;;;;;;5039233;28;20112;-76
2023/12/15 07:24:49;;;;;;;24.13;13.10;;;;;;;;;;5039578;28;20024;-76
2023/12/15 07:27:15;;;;;;;20.17;10.80;;;;;;;;;;5036315;28;20468;-76
2023/12/15 07:29:40;;;;;;;18.88;11.07;;;;;;;;;;5037547;28;20032;-76
2023/12/15 07:32:05;;;;;;;20.48;10.25;;;;;;;;;;5040817;28;20032;-76
2023/12/15 07:34:30;;;;;;;22.05;12.02;;;;;;;;;;5038492;28;20030;-76
2023/12/15 07:36:56;;;;;;;20.08;10.82;;;;;;;;;;5034431;28;20037;-76
2023/12/15 07:39:21;;;;;;;25.88;11.85;;;;;;;;;;5034314;28;20029;-76
2023/12/15 07:41:50;;;;;;;22.38;11.20;;;;;;;;;;5035859;28;20108;-76
2023/12/15 07:44:15;;;;;;;23.98;12.50;;;;;;;;;;5031890;28;20029;-76
2023/12/15 07:46:43;;;;;;;26.35;12.88;;;;;;;;;;5039132;28;20171;-77
2023/12/15 07:49:09;;;;;;;19.88;11.15;;;;;;;;;;5033606;28;20069;-76
2023/12/15 07:51:34;;;;;;;19.48;11.65;;;;;;;;;;5034944;28;20061;-76
2023/12/15 07:53:59;;;;;;;19.25;11.02;;;;;;;;;;5034581;28;20040;-77
2023/12/15 07:56:26;;;;;;;25.73;13.95;;;;;;;;;;5034823;28;20120;-76
2023/12/15 07:58:51;;;;;;;24.90;12.13;;;;;;;;;;5038915;28;20021;-76
2023/12/15 08:01:20;;;;;;;24.90;13.02;;;;;;;;;;5041573;28;20022;-77
2023/12/15 08:03:45;;;;;;;27.83;13.32;;;;;;;;;;5033473;28;20036;-76
2023/12/15 08:06:12;;;;;;;24.50;13.73;;;;;;;;;;5034127;28;20021;-76
2023/12/15 08:08:38;;;;;;;23.52;11.27;;;;;;;;;;5044459;28;20080;-76
2023/12/15 08:11:03;;;;;;;24.63;13.15;;;;;;;;;;5039810;28;20025;-77
2023/12/15 08:13:29;;;;;;;21.35;11.20;;;;;;;;;;5040704;28;20064;-76
2023/12/15 08:15:54;;;;;;;21.75;11.35;;;;;;;;;;5047618;28;20072;-76
2023/12/15 08:18:19;;;;;;;22.98;11.60;;;;;;;;;;5035103;28;20401;-76
2023/12/15 08:20:47;;;;;;;25.60;12.48;;;;;;;;;;5035493;28;20028;-76
2023/12/15 08:23:12;;;;;;;19.92;10.95;;;;;;;;;;5037473;28;20397;-76
2023/12/15 08:25:37;;;;;;;22.98;12.52;;;;;;;;;;5040019;28;20021;-76
2023/12/15 08:28:02;;;;;;;22.02;12.23;;;;;;;;;;5044599;28;20041;-76
2023/12/15 08:30:28;;;;;;;22.58;11.90;;;;;;;;;;5060756;28;20037;-76
2023/12/15 08:32:53;;;;;;;26.35;14.73;;;;;;;;;;5045466;28;20040;-76
2023/12/15 08:35:18;;;;;;;23.60;13.15;;;;;;;;;;5042547;28;20102;-76
2023/12/15 08:37:43;;;;;;;23.42;13.02;;;;;;;;;;5044634;28;20032;-76
2023/12/15 08:40:09;;;;;;;24.63;12.95;;;;;;;;;;5041931;28;20088;-76
2023/12/15 08:42:34;;;;;;;24.58;14.15;;;;;;;;;;5044981;28;20055;-76
2023/12/15 08:44:59;;;;;;;26.13;13.60;;;;;;;;;;5040506;28;20029;-76
2023/12/15 08:47:24;;;;;;;25.05;14.10;;;;;;;;;;5041540;28;20064;-76
2023/12/15 08:49:49;;;;;;;22.13;13.32;;;;;;;;;;5040352;28;20120;-76
2023/12/15 08:52:15;;;;;;;23.23;13.18;;;;;;;;;;5042983;28;20034;-76
2023/12/15 08:54:41;;;;;;;21.40;11.98;;;;;;;;;;5044540;28;20079;-76
2023/12/15 08:57:06;;;;;;;18.88;11.50;;;;;;;;;;5039659;28;20507;-77
2023/12/15 08:59:31;;;;;;;21.05;11.35;;;;;;;;;;5038604;28;20105;-76
2023/12/15 09:01:57;;;;;;;21.13;11.18;;;;;;;;;;5042728;28;20017;-76
2023/12/15 09:04:22;;;;;;;22.00;13.50;;;;;;;;;;5038740;28;20032;-76
2023/12/15 09:06:48;;;;;;;26.60;13.07;;;;;;;;;;5042265;28;20024;-77
2023/12/15 09:09:13;;;;;;;23.45;14.07;;;;;;;;;;5043041;28;20503;-76
2023/12/15 09:11:38;;;;;;;21.17;12.48;;;;;;;;;;5038953;28;20022;-76
2023/12/15 09:14:03;;;;;;;24.35;13.82;;;;;;;;;;5041464;28;20415;-75
2023/12/15 09:16:29;;;;;;;22.63;14.15;;;;;;;;;;5041478;28;20508;-76
2023/12/15 09:18:54;;;;;;;23.33;13.50;;;;;;;;;;5043482;28;20037;-76
2023/12/15 09:21:19;;;;;;;20.15;12.45;;;;;;;;;;5042231;28;20068;-76
2023/12/15 09:23:44;;;;;;;23.40;13.93;;;;;;;;;;5042856;28;20017;-76
2023/12/15 09:26:09;;;;;;;21.83;13.13;;;;;;;;;;5039662;28;20036;-76
2023/12/15 09:28:35;;;;;;;23.25;13.98;;;;;;;;;;5041632;28;20026;-76
2023/12/15 09:31:00;;;;;;;27.38;15.85;;;;;;;;;;5042335;28;20083;-76
2023/12/15 09:33:26;;;;;;;23.35;13.13;;;;;;;;;;5043107;28;20109;-76
2023/12/15 09:35:55;;;;;;;21.23;12.90;;;;;;;;;;5042780;28;20052;-76
2023/12/15 09:38:20;;;;;;;20.35;12.65;;;;;;;;;;5040087;28;20033;-76
2023/12/15 09:40:46;;;;;;;23.88;13.10;;;;;;;;;;5037171;28;20527;-76
2023/12/15 09:43:11;;;;;;;21.77;12.70;;;;;;;;;;5041425;28;20029;-76
2023/12/15 09:45:36;;;;;;;21.48;13.55;;;;;;;;;;5043901;28;20037;-76
2023/12/15 09:48:03;;;;;;;23.08;14.05;;;;;;;;;;5039332;28;20045;-76
2023/12/15 09:50:31;;;;;;;22.15;13.45;;;;;;;;;;5021214;28;20041;-75
2023/12/15 09:52:56;;;;;;;22.23;12.98;;;;;;;;;;5047360;28;20037;-75
2023/12/15 09:55:22;;;;;;;22.08;13.18;;;;;;;;;;5039126;28;20382;-76
2023/12/15 09:57:47;;;;;;;23.08;14.13;;;;;;;;;;5043575;28;20527;-76
2023/12/15 10:00:13;;;;;;;24.83;14.50;;;;;;;;;;5039154;28;20113;-76
2023/12/15 10:02:39;;;;;;;21.08;12.65;;;;;;;;;;5059195;28;20430;-76
2023/12/15 10:05:05;;;;;;;29.15;15.95;;;;;;;;;;5038724;28;20159;-76
2023/12/15 10:07:30;;;;;;;25.60;15.52;;;;;;;;;;5039120;28;20041;-76
2023/12/15 10:09:55;;;;;;;24.60;13.25;;;;;;;;;;5040682;28;20091;-76
2023/12/15 10:12:20;;;;;;;23.80;13.63;;;;;;;;;;5040993;28;20101;-76
2023/12/15 10:14:46;;;;;;;23.20;13.73;;;;;;;;;;5043689;28;20386;-76
2023/12/15 10:17:11;;;;;;;22.70;13.43;;;;;;;;;;5039762;28;20037;-76
2023/12/15 10:19:37;;;;;;;24.38;14.35;;;;;;;;;;5042461;28;20389;-76
2023/12/15 10:22:02;;;;;;;24.10;14.88;;;;;;;;;;5035005;28;20033;-76
2023/12/15 10:24:28;;;;;;;24.80;12.63;;;;;;;;;;5034573;28;20448;-76
2023/12/15 10:26:53;;;;;;;24.77;13.25;;;;;;;;;;5041761;28;20059;-76
2023/12/15 10:29:23;;;;;;;24.77;15.50;;;;;;;;;;5042553;28;20555;-76
2023/12/15 10:31:50;;;;;;;30.38;18.13;;;;;;;;;;5042049;28;20028;-76
2023/12/15 10:34:15;;;;;;;22.33;13.10;;;;;;;;;;5039492;28;20490;-76
2023/12/15 10:36:44;;;;;;;23.08;13.02;;;;;;;;;;5033337;28;20072;-76
2023/12/15 10:39:11;;;;;;;22.25;13.18;;;;;;;;;;5040371;28;20043;-76
2023/12/15 10:41:38;;;;;;;20.38;12.40;;;;;;;;;;5043556;28;20049;-76
2023/12/15 10:44:04;;;;;;;19.73;13.60;;;;;;;;;;5040099;28;20026;-76
2023/12/15 10:46:30;;;;;;;19.65;12.23;;;;;;;;;;5042592;28;20108;-76
2023/12/15 10:48:58;;;;;;;18.40;12.05;;;;;;;;;;5037048;28;20028;-76
2023/12/15 10:51:24;;;;;;;19.35;12.23;;;;;;;;;;5038708;28;20021;-76
2023/12/15 10:53:51;;;;;;;19.17;12.02;;;;;;;;;;5042840;28;20032;-76
2023/12/15 10:56:17;;;;;;;20.55;11.60;;;;;;;;;;5055159;28;20438;-77
2023/12/15 10:58:43;;;;;;;20.38;12.63;;;;;;;;;;5042250;28;20017;-76
2023/12/15 11:01:09;;;;;;;25.75;15.35;;;;;;;;;;5040232;28;20408;-76
2023/12/15 11:03:35;;;;;;;27.40;16.63;;;;;;;;;;5039197;28;20033;-76
2023/12/15 11:06:00;;;;;;;26.30;12.63;;;;;;;;;;5042404;28;20028;-76
2023/12/15 11:08:26;;;;;;;20.67;13.07;;;;;;;;;;5038314;28;20108;-76
2023/12/15 11:10:52;;;;;;;19.23;11.50;;;;;;;;;;5041520;28;20090;-76
2023/12/15 11:13:36;;;;;;;21.60;13.68;;;;;;;;;;5039334;28;20112;-76
2023/12/15 11:16:01;;;;;;;17.38;11.32;;;;;;;;;;5036045;28;20033;-78
2023/12/15 11:18:26;;;;;;;18.20;11.05;;;;;;;;;;5030817;28;20029;-76
2023/12/15 11:20:52;;;;;;;19.85;11.95;;;;;;;;;;5027991;28;20026;-76
2023/12/15 11:23:17;;;;;;;20.08;12.65;;;;;;;;;;5035595;28;20060;-76
2023/12/15 11:25:45;;;;;;;21.65;11.68;;;;;;;;;;5034665;28;20038;-78
2023/12/15 11:28:15;;;;;;;22.80;12.88;;;;;;;;;;5041110;28;20045;-76
2023/12/15 11:30:52;;;;;;;20.23;12.15;;;;;;;;;;5038500;28;20541;-76
2023/12/15 11:33:20;;;;;;;20.10;12.13;;;;;;;;;;5038533;28;20128;-76
2023/12/15 11:35:51;;;;;;;19.58;12.02;;;;;;;;;;5042526;28;20032;-76
2023/12/15 11:38:16;;;;;;;20.00;11.80;;;;;;;;;;5036840;28;20061;-76
2023/12/15 11:40:41;;;;;;;20.67;12.20;;;;;;;;;;5038343;28;20433;-75
2023/12/15 11:43:07;;;;;;;21.40;11.90;;;;;;;;;;5039345;28;20029;-76
2023/12/15 11:45:32;;;;;;;17.80;10.00;;;;;;;;;;5035252;28;20061;-76
2023/12/15 11:47:58;;;;;;;20.92;10.75;;;;;;;;;;5041277;28;20037;-76
2023/12/15 11:50:23;;;;;;;17.33;10.93;;;;;;;;;;5038193;28;20041;-76
2023/12/15 11:52:51;;;;;;;20.77;11.57;;;;;;;;;;5037043;28;20212;-76
2023/12/15 11:55:17;;;;;;;19.52;10.70;;;;;;;;;;5039890;28;20582;-76
2023/12/15 11:57:42;;;;;;;20.10;12.40;;;;;;;;;;5039440;28;20037;-76
2023/12/15 12:00:09;;;;;;;17.13;10.50;;;;;;;;;;5034417;28;20025;-79
2023/12/15 12:02:35;;;;;;;17.52;10.05;;;;;;;;;;5033591;28;20041;-77
2023/12/15 12:05:01;;;;;;;17.05;10.73;;;;;;;;;;5040214;28;20025;-76
2023/12/15 12:07:27;;;;;;;18.05;10.60;;;;;;;;;;5055302;28;20504;-76
2023/12/15 12:09:53;;;;;;;16.65;10.57;;;;;;;;;;5040085;28;20047;-76
2023/12/15 12:12:18;;;;;;;17.77;10.07;;;;;;;;;;5038513;28;20037;-76
2023/12/15 12:14:43;;;;;;;19.65;11.18;;;;;;;;;;5037814;28;20116;-76
2023/12/15 12:17:10;;;;;;;19.00;10.80;;;;;;;;;;5039578;28;20032;-76
2023/12/15 12:19:38;;;;;;;17.92;10.35;;;;;;;;;;5039935;28;20041;-76
2023/12/15 12:22:08;;;;;;;18.00;9.77;;;;;;;;;;5023171;28;20036;-76
2023/12/15 12:24:33;;;;;;;17.40;10.48;;;;;;;;;;5038800;28;20021;-76
2023/12/15 12:26:58;;;;;;;17.35;10.18;;;;;;;;;;5033942;28;20043;-76
2023/12/15 12:29:24;;;;;;;19.00;9.77;;;;;;;;;;5038639;28;20029;-76
2023/12/15 12:31:49;;;;;;;19.88;11.65;;;;;;;;;;5034781;28;20108;-76
2023/12/15 12:34:15;;;;;;;19.27;10.40;;;;;;;;;;5041151;28;20199;-76
2023/12/15 12:36:40;;;;;;;17.48;9.68;;;;;;;;;;5036291;28;20053;-76
2023/12/15 12:39:06;;;;;;;17.77;11.15;;;;;;;;;;5042930;28;20037;-76
2023/12/15 12:41:31;;;;;;;18.75;11.15;;;;;;;;;;5039233;28;20025;-76
2023/12/15 12:43:56;;;;;;;17.83;10.25;;;;;;;;;;5041539;28;20044;-76
2023/12/15 12:46:22;;;;;;;17.60;11.10;;;;;;;;;;5036921;28;20059;-76
2023/12/15 12:48:47;;;;;;;18.00;10.57;;;;;;;;;;5031264;28;20026;-76
2023/12/15 12:51:12;;;;;;;18.63;11.73;;;;;;;;;;5039464;28;20037;-76
2023/12/15 12:53:37;;;;;;;16.02;10.15;;;;;;;;;;5040889;28;20080;-76
2023/12/15 12:56:02;;;;;;;19.02;10.80;;;;;;;;;;5043855;28;20029;-76
2023/12/15 12:58:28;;;;;;;18.73;10.80;;;;;;;;;;5038885;28;20036;-76
2023/12/15 13:00:53;;;;;;;19.55;10.93;;;;;;;;;;5060067;28;20017;-76
2023/12/15 13:03:19;;;;;;;17.83;10.70;;;;;;;;;;5042298;28;20552;-76
2023/12/15 13:05:44;;;;;;;15.82;9.20;;;;;;;;;;5043291;28;20078;-76
2023/12/15 13:08:09;;;;;;;19.38;10.90;;;;;;;;;;5033709;28;20152;-76
2023/12/15 13:10:35;;;;;;;20.80;10.60;;;;;;;;;;5032176;28;20061;-76
2023/12/15 13:13:01;;;;;;;16.30;9.00;;;;;;;;;;5037086;28;20033;-76
2023/12/15 13:15:27;;;;;;;17.35;9.57;;;;;;;;;;5038024;28;20446;-76
2023/12/15 13:17:59;;;;;;;18.27;10.15;;;;;;;;;;5039521;28;20108;-76
2023/12/15 13:20:25;;;;;;;18.48;10.18;;;;;;;;;;5036957;28;20034;-76
2023/12/15 13:22:50;;;;;;;16.83;9.80;;;;;;;;;;5017663;28;20061;-76
2023/12/15 13:25:15;;;;;;;19.13;10.68;;;;;;;;;;5035205;28;20091;-76
2023/12/15 13:27:40;;;;;;;19.15;10.98;;;;;;;;;;5035559;28;20397;-76
2023/12/15 13:30:09;;;;;;;19.33;10.25;;;;;;;;;;5039666;28;20111;-76
2023/12/15 13:32:34;;;;;;;18.25;10.90;;;;;;;;;;5038886;28;20021;-76
2023/12/15 13:34:59;;;;;;;18.63;10.65;;;;;;;;;;5041317;28;20055;-76
2023/12/15 13:37:24;;;;;;;22.30;11.52;;;;;;;;;;5033571;28;20038;-76
2023/12/15 13:39:50;;;;;;;19.30;10.05;;;;;;;;;;5034877;28;20026;-76
2023/12/15 13:42:15;;;;;;;17.15;10.50;;;;;;;;;;5037743;28;20025;-76
2023/12/15 13:44:40;;;;;;;17.20;10.02;;;;;;;;;;5035172;28;20116;-76
2023/12/15 13:47:06;;;;;;;16.55;10.80;;;;;;;;;;5041305;28;20095;-77
2023/12/15 13:49:32;;;;;;;16.52;9.80;;;;;;;;;;5044553;28;20029;-76
2023/12/15 13:51:57;;;;;;;20.48;11.00;;;;;;;;;;5043133;28;20037;-76
2023/12/15 13:54:22;;;;;;;17.17;10.00;;;;;;;;;;5034569;28;20041;-76
2023/12/15 13:56:47;;;;;;;17.13;10.13;;;;;;;;;;5035634;28;20030;-76
2023/12/15 13:59:12;;;;;;;16.98;9.85;;;;;;;;;;5035630;28;20033;-76
2023/12/15 14:01:39;;;;;;;18.73;10.32;;;;;;;;;;5038731;28;20450;-76
2023/12/15 14:04:06;;;;;;;21.48;11.43;;;;;;;;;;5039645;28;20075;-76
2023/12/15 14:06:32;;;;;;;19.27;10.75;;;;;;;;;;5036554;28;20025;-76
2023/12/15 14:08:58;;;;;;;17.77;10.40;;;;;;;;;;5035910;28;20038;-76
2023/12/15 14:11:23;;;;;;;20.75;9.93;;;;;;;;;;5039046;28;20036;-76